sensor_id;sensor_type;location;lat;lon;timestamp;temperature;humidity
36372;DHT22;22398;51.346;12.372;2023-07-09T00:00:00;22.20;53.40
36372;DHT22;22398;51.346;12.372;2023-07-09T00:05:07;22.10;53.50
36372;DHT22;22398;51.346;12.372;2023-07-09T00:10:16;22.10;53.70
36372;DHT22;22398;51.346;12.372;2023-07-09T00:15:19;22.00;53.90
36372;DHT22;22398;51.346;12.372;2023-07-09T00:20:25;21.90;54.10
36372;DHT22;22398;51.346;12.372;2023-07-09T00:25:28;21.80;54.40
36372;DHT22;22398;51.346;12.372;2023-07-09T00:30:32;21.80;54.80
36372;DHT22;22398;51.346;12.372;2023-07-09T00:35:37;21.70;55.00
36372;DHT22;22398;51.346;12.372;2023-07-09T00:40:45;21.50;55.30
36372;DHT22;22398;51.346;12.372;2023-07-09T00:51:10;21.30;55.80
36372;DHT22;22398;51.346;12.372;2023-07-09T00:56:19;21.30;56.00
36372;DHT22;22398;51.346;12.372;2023-07-09T01:01:28;21.40;56.10
36372;DHT22;22398;51.346;12.372;2023-07-09T01:06:34;21.40;56.20
36372;DHT22;22398;51.346;12.372;2023-07-09T01:11:38;21.40;56.30
36372;DHT22;22398;51.346;12.372;2023-07-09T01:16:46;21.40;56.40
36372;DHT22;22398;51.346;12.372;2023-07-09T01:21:53;21.20;56.70
36372;DHT22;22398;51.346;12.372;2023-07-09T01:26:57;21.10;56.80
36372;DHT22;22398;51.346;12.372;2023-07-09T01:32:00;20.90;57.10
36372;DHT22;22398;51.346;12.372;2023-07-09T01:37:06;20.90;57.40
36372;DHT22;22398;51.346;12.372;2023-07-09T01:42:09;20.80;57.60
36372;DHT22;22398;51.346;12.372;2023-07-09T01:47:13;20.70;57.80
36372;DHT22;22398;51.346;12.372;2023-07-09T01:52:18;20.60;57.90
36372;DHT22;22398;51.346;12.372;2023-07-09T01:57:22;20.60;58.20
36372;DHT22;22398;51.346;12.372;2023-07-09T02:02:26;20.50;58.40
36372;DHT22;22398;51.346;12.372;2023-07-09T02:07:31;20.40;58.60
36372;DHT22;22398;51.346;12.372;2023-07-09T02:12:34;20.40;58.90
36372;DHT22;22398;51.346;12.372;2023-07-09T02:17:38;20.30;59.10
36372;DHT22;22398;51.346;12.372;2023-07-09T02:22:43;20.20;59.30
36372;DHT22;22398;51.346;12.372;2023-07-09T02:27:46;20.10;59.60
36372;DHT22;22398;51.346;12.372;2023-07-09T02:32:52;19.90;59.80
36372;DHT22;22398;51.346;12.372;2023-07-09T02:37:57;19.90;60.10
36372;DHT22;22398;51.346;12.372;2023-07-09T02:43:01;19.70;60.30
36372;DHT22;22398;51.346;12.372;2023-07-09T02:48:05;19.60;60.50
36372;DHT22;22398;51.346;12.372;2023-07-09T02:53:14;19.60;60.60
36372;DHT22;22398;51.346;12.372;2023-07-09T02:58:18;19.50;61.00
36372;DHT22;22398;51.346;12.372;2023-07-09T03:03:22;19.50;61.20
36372;DHT22;22398;51.346;12.372;2023-07-09T03:08:27;19.40;61.60
36372;DHT22;22398;51.346;12.372;2023-07-09T03:13:30;19.30;62.10
36372;DHT22;22398;51.346;12.372;2023-07-09T03:18:34;19.30;62.30
36372;DHT22;22398;51.346;12.372;2023-07-09T03:23:39;19.30;62.80
36372;DHT22;22398;51.346;12.372;2023-07-09T03:28:42;19.20;62.80
36372;DHT22;22398;51.346;12.372;2023-07-09T03:33:46;19.30;63.40
36372;DHT22;22398;51.346;12.372;2023-07-09T03:38:51;19.30;63.40
36372;DHT22;22398;51.346;12.372;2023-07-09T03:43:55;19.30;63.90
36372;DHT22;22398;51.346;12.372;2023-07-09T03:48:59;19.40;63.80
36372;DHT22;22398;51.346;12.372;2023-07-09T03:54:04;19.30;64.20
36372;DHT22;22398;51.346;12.372;2023-07-09T03:59:08;19.40;64.20
36372;DHT22;22398;51.346;12.372;2023-07-09T04:04:12;19.40;64.60
36372;DHT22;22398;51.346;12.372;2023-07-09T04:09:16;19.50;64.50
36372;DHT22;22398;51.346;12.372;2023-07-09T04:14:20;19.50;65.00
36372;DHT22;22398;51.346;12.372;2023-07-09T04:19:23;19.60;64.80
36372;DHT22;22398;51.346;12.372;2023-07-09T04:24:29;19.60;64.90
36372;DHT22;22398;51.346;12.372;2023-07-09T04:29:33;19.70;64.80
36372;DHT22;22398;51.346;12.372;2023-07-09T04:34:37;19.90;65.20
36372;DHT22;22398;51.346;12.372;2023-07-09T04:39:42;19.90;64.80
36372;DHT22;22398;51.346;12.372;2023-07-09T04:44:46;20.00;65.10
36372;DHT22;22398;51.346;12.372;2023-07-09T04:49:49;20.20;64.80
36372;DHT22;22398;51.346;12.372;2023-07-09T04:54:55;20.20;65.10
36372;DHT22;22398;51.346;12.372;2023-07-09T04:59:58;20.30;64.70
36372;DHT22;22398;51.346;12.372;2023-07-09T05:05:02;21.60;66.20
36372;DHT22;22398;51.346;12.372;2023-07-09T05:10:08;24.90;61.10
36372;DHT22;22398;51.346;12.372;2023-07-09T05:15:11;26.70;58.30
36372;DHT22;22398;51.346;12.372;2023-07-09T05:20:15;28.00;54.70
36372;DHT22;22398;51.346;12.372;2023-07-09T05:25:20;28.80;53.10
36372;DHT22;22398;51.346;12.372;2023-07-09T05:30:23;27.20;51.40
36372;DHT22;22398;51.346;12.372;2023-07-09T05:35:26;25.40;53.10
36372;DHT22;22398;51.346;12.372;2023-07-09T05:40:31;24.10;54.30
36372;DHT22;22398;51.346;12.372;2023-07-09T05:45:35;23.60;56.00
36372;DHT22;22398;51.346;12.372;2023-07-09T05:50:38;23.10;56.50
36372;DHT22;22398;51.346;12.372;2023-07-09T05:55:43;22.90;57.20
36372;DHT22;22398;51.346;12.372;2023-07-09T06:00:49;22.80;57.70
36372;DHT22;22398;51.346;12.372;2023-07-09T06:05:56;23.10;58.10
36372;DHT22;22398;51.346;12.372;2023-07-09T06:11:02;23.10;58.10
36372;DHT22;22398;51.346;12.372;2023-07-09T06:16:05;23.50;58.30
36372;DHT22;22398;51.346;12.372;2023-07-09T06:21:09;23.40;58.60
36372;DHT22;22398;51.346;12.372;2023-07-09T06:26:16;23.70;58.40
36372;DHT22;22398;51.346;12.372;2023-07-09T06:31:20;23.70;58.70
36372;DHT22;22398;51.346;12.372;2023-07-09T06:36:26;24.00;58.00
36372;DHT22;22398;51.346;12.372;2023-07-09T06:41:34;24.10;58.40
36372;DHT22;22398;51.346;12.372;2023-07-09T06:46:44;24.30;57.80
36372;DHT22;22398;51.346;12.372;2023-07-09T06:51:48;24.50;57.60
36372;DHT22;22398;51.346;12.372;2023-07-09T06:56:53;24.80;57.30
36372;DHT22;22398;51.346;12.372;2023-07-09T07:01:57;26.30;58.70
36372;DHT22;22398;51.346;12.372;2023-07-09T07:07:00;25.30;56.60
36372;DHT22;22398;51.346;12.372;2023-07-09T07:12:07;25.30;56.90
36372;DHT22;22398;51.346;12.372;2023-07-09T07:17:11;25.70;56.00
36372;DHT22;22398;51.346;12.372;2023-07-09T07:22:16;25.80;56.50
36372;DHT22;22398;51.346;12.372;2023-07-09T07:27:21;26.20;55.80
36372;DHT22;22398;51.346;12.372;2023-07-09T07:32:25;26.20;56.00
36372;DHT22;22398;51.346;12.372;2023-07-09T07:37:28;26.70;55.50
36372;DHT22;22398;51.346;12.372;2023-07-09T07:42:33;26.70;55.30
36372;DHT22;22398;51.346;12.372;2023-07-09T07:47:37;27.20;54.60
36372;DHT22;22398;51.346;12.372;2023-07-09T07:52:41;27.30;54.70
36372;DHT22;22398;51.346;12.372;2023-07-09T07:57:46;28.00;53.20
36372;DHT22;22398;51.346;12.372;2023-07-09T08:02:50;28.10;52.80
36372;DHT22;22398;51.346;12.372;2023-07-09T08:07:54;28.90;52.10
36372;DHT22;22398;51.346;12.372;2023-07-09T08:12:58;29.10;51.80
36372;DHT22;22398;51.346;12.372;2023-07-09T08:18:02;29.60;50.80
36372;DHT22;22398;51.346;12.372;2023-07-09T08:23:06;29.70;50.90
36372;DHT22;22398;51.346;12.372;2023-07-09T08:28:11;30.10;49.10
36372;DHT22;22398;51.346;12.372;2023-07-09T08:33:14;30.30;49.60
36372;DHT22;22398;51.346;12.372;2023-07-09T08:38:18;30.50;48.10
36372;DHT22;22398;51.346;12.372;2023-07-09T08:43:24;30.60;47.80
36372;DHT22;22398;51.346;12.372;2023-07-09T08:48:33;31.00;46.80
36372;DHT22;22398;51.346;12.372;2023-07-09T08:53:38;31.10;46.90
36372;DHT22;22398;51.346;12.372;2023-07-09T08:58:43;31.50;46.50
36372;DHT22;22398;51.346;12.372;2023-07-09T09:03:49;31.70;45.90
36372;DHT22;22398;51.346;12.372;2023-07-09T09:08:58;31.90;45.60
36372;DHT22;22398;51.346;12.372;2023-07-09T09:14:05;32.30;45.20
36372;DHT22;22398;51.346;12.372;2023-07-09T09:19:13;32.50;44.40
36372;DHT22;22398;51.346;12.372;2023-07-09T09:24:19;32.60;43.40
36372;DHT22;22398;51.346;12.372;2023-07-09T09:29:27;32.70;43.20
36372;DHT22;22398;51.346;12.372;2023-07-09T09:34:30;32.80;43.00
36372;DHT22;22398;51.346;12.372;2023-07-09T09:39:37;32.90;42.70
36372;DHT22;22398;51.346;12.372;2023-07-09T09:44:44;33.20;42.60
36372;DHT22;22398;51.346;12.372;2023-07-09T09:49:47;33.30;42.30
36372;DHT22;22398;51.346;12.372;2023-07-09T09:54:52;33.60;42.20
36372;DHT22;22398;51.346;12.372;2023-07-09T09:59:57;33.70;41.70
36372;DHT22;22398;51.346;12.372;2023-07-09T10:05:04;33.80;41.40
36372;DHT22;22398;51.346;12.372;2023-07-09T10:10:11;34.00;41.20
36372;DHT22;22398;51.346;12.372;2023-07-09T10:15:24;34.20;40.60
36372;DHT22;22398;51.346;12.372;2023-07-09T10:20:32;34.40;40.50
36372;DHT22;22398;51.346;12.372;2023-07-09T10:25:39;34.40;40.10
36372;DHT22;22398;51.346;12.372;2023-07-09T10:30:46;34.60;39.80
36372;DHT22;22398;51.346;12.372;2023-07-09T10:35:54;34.30;39.00
36372;DHT22;22398;51.346;12.372;2023-07-09T10:41:01;34.30;39.10
36372;DHT22;22398;51.346;12.372;2023-07-09T10:46:29;34.50;38.90
36372;DHT22;22398;51.346;12.372;2023-07-09T10:51:37;34.70;38.60
36372;DHT22;22398;51.346;12.372;2023-07-09T10:56:40;34.70;38.30
36372;DHT22;22398;51.346;12.372;2023-07-09T11:01:47;34.50;37.70
36372;DHT22;22398;51.346;12.372;2023-07-09T11:06:53;33.80;37.20
36372;DHT22;22398;51.346;12.372;2023-07-09T11:11:58;33.80;37.60
36372;DHT22;22398;51.346;12.372;2023-07-09T11:17:04;34.10;37.80
36372;DHT22;22398;51.346;12.372;2023-07-09T11:22:14;34.30;37.70
36372;DHT22;22398;51.346;12.372;2023-07-09T11:27:20;34.30;37.60
36372;DHT22;22398;51.346;12.372;2023-07-09T11:32:25;34.20;37.20
36372;DHT22;22398;51.346;12.372;2023-07-09T11:37:29;33.90;37.10
36372;DHT22;22398;51.346;12.372;2023-07-09T11:42:32;33.90;37.40
36372;DHT22;22398;51.346;12.372;2023-07-09T11:47:39;34.10;37.90
36372;DHT22;22398;51.346;12.372;2023-07-09T11:52:45;34.20;37.40
36372;DHT22;22398;51.346;12.372;2023-07-09T11:57:52;34.10;37.60
36372;DHT22;22398;51.346;12.372;2023-07-09T12:02:57;34.20;37.20
36372;DHT22;22398;51.346;12.372;2023-07-09T12:08:00;34.30;37.10
36372;DHT22;22398;51.346;12.372;2023-07-09T12:13:04;34.20;37.00
36372;DHT22;22398;51.346;12.372;2023-07-09T12:18:11;34.20;37.00
36372;DHT22;22398;51.346;12.372;2023-07-09T12:23:18;34.30;37.10
36372;DHT22;22398;51.346;12.372;2023-07-09T12:28:23;34.20;36.80
36372;DHT22;22398;51.346;12.372;2023-07-09T12:33:28;34.10;36.80
36372;DHT22;22398;51.346;12.372;2023-07-09T12:38:42;34.30;37.00
36372;DHT22;22398;51.346;12.372;2023-07-09T12:43:46;34.50;37.00
36372;DHT22;22398;51.346;12.372;2023-07-09T12:48:52;34.50;36.80
36372;DHT22;22398;51.346;12.372;2023-07-09T12:54:00;34.60;36.60
36372;DHT22;22398;51.346;12.372;2023-07-09T12:59:07;34.60;36.60
36372;DHT22;22398;51.346;12.372;2023-07-09T13:04:19;34.80;36.70
36372;DHT22;22398;51.346;12.372;2023-07-09T13:09:27;34.80;36.50
36372;DHT22;22398;51.346;12.372;2023-07-09T13:14:30;34.90;36.50
36372;DHT22;22398;51.346;12.372;2023-07-09T13:19:35;34.80;36.20
36372;DHT22;22398;51.346;12.372;2023-07-09T13:24:39;34.90;36.30
36372;DHT22;22398;51.346;12.372;2023-07-09T13:29:42;34.80;36.20
36372;DHT22;22398;51.346;12.372;2023-07-09T13:34:47;34.80;36.10
36372;DHT22;22398;51.346;12.372;2023-07-09T13:39:51;34.80;36.00
36372;DHT22;22398;51.346;12.372;2023-07-09T13:44:54;34.90;36.00
36372;DHT22;22398;51.346;12.372;2023-07-09T13:49:59;34.90;35.80
36372;DHT22;22398;51.346;12.372;2023-07-09T13:55:04;35.00;35.90
36372;DHT22;22398;51.346;12.372;2023-07-09T14:00:09;34.90;35.70
36372;DHT22;22398;51.346;12.372;2023-07-09T14:05:13;35.00;35.80
36372;DHT22;22398;51.346;12.372;2023-07-09T14:10:17;35.20;36.00
36372;DHT22;22398;51.346;12.372;2023-07-09T14:15:21;35.20;35.80
36372;DHT22;22398;51.346;12.372;2023-07-09T14:20:25;35.30;35.80
36372;DHT22;22398;51.346;12.372;2023-07-09T14:25:29;35.40;35.60
36372;DHT22;22398;51.346;12.372;2023-07-09T14:30:32;35.40;35.60
36372;DHT22;22398;51.346;12.372;2023-07-09T14:35:37;35.60;35.60
36372;DHT22;22398;51.346;12.372;2023-07-09T14:40:41;35.60;35.30
36372;DHT22;22398;51.346;12.372;2023-07-09T14:45:44;35.40;35.40
36372;DHT22;22398;51.346;12.372;2023-07-09T14:50:49;35.20;35.20
36372;DHT22;22398;51.346;12.372;2023-07-09T14:55:52;34.90;35.10
36372;DHT22;22398;51.346;12.372;2023-07-09T15:00:56;34.80;35.70
36372;DHT22;22398;51.346;12.372;2023-07-09T15:06:01;34.70;35.80
36372;DHT22;22398;51.346;12.372;2023-07-09T15:11:04;34.90;35.80
36372;DHT22;22398;51.346;12.372;2023-07-09T15:16:08;35.10;35.70
36372;DHT22;22398;51.346;12.372;2023-07-09T15:21:13;35.20;35.60
36372;DHT22;22398;51.346;12.372;2023-07-09T15:26:18;35.20;35.50
36372;DHT22;22398;51.346;12.372;2023-07-09T15:31:21;35.20;35.40
36372;DHT22;22398;51.346;12.372;2023-07-09T15:36:26;35.20;35.40
36372;DHT22;22398;51.346;12.372;2023-07-09T15:41:29;35.20;35.40
36372;DHT22;22398;51.346;12.372;2023-07-09T15:46:33;35.20;35.30
36372;DHT22;22398;51.346;12.372;2023-07-09T15:51:38;35.10;35.00
36372;DHT22;22398;51.346;12.372;2023-07-09T15:56:41;35.40;35.10
36372;DHT22;22398;51.346;12.372;2023-07-09T16:01:44;35.90;35.10
36372;DHT22;22398;51.346;12.372;2023-07-09T16:06:49;36.30;35.00
36372;DHT22;22398;51.346;12.372;2023-07-09T16:11:53;36.80;34.90
36372;DHT22;22398;51.346;12.372;2023-07-09T16:16:57;37.10;34.60
36372;DHT22;22398;51.346;12.372;2023-07-09T16:22:03;37.10;34.30
36372;DHT22;22398;51.346;12.372;2023-07-09T16:27:09;37.20;34.40
36372;DHT22;22398;51.346;12.372;2023-07-09T16:32:14;37.40;34.30
36372;DHT22;22398;51.346;12.372;2023-07-09T16:37:20;37.60;34.30
36372;DHT22;22398;51.346;12.372;2023-07-09T16:42:25;37.90;34.10
36372;DHT22;22398;51.346;12.372;2023-07-09T16:47:28;38.30;34.00
36372;DHT22;22398;51.346;12.372;2023-07-09T16:52:34;38.60;33.80
36372;DHT22;22398;51.346;12.372;2023-07-09T16:57:37;39.00;33.70
36372;DHT22;22398;51.346;12.372;2023-07-09T17:02:41;39.30;33.50
36372;DHT22;22398;51.346;12.372;2023-07-09T17:07:45;39.50;33.60
36372;DHT22;22398;51.346;12.372;2023-07-09T17:12:50;39.20;33.70
36372;DHT22;22398;51.346;12.372;2023-07-09T17:17:55;38.90;33.70
36372;DHT22;22398;51.346;12.372;2023-07-09T17:23:00;38.80;33.80
36372;DHT22;22398;51.346;12.372;2023-07-09T17:28:10;38.70;33.90
36372;DHT22;22398;51.346;12.372;2023-07-09T17:33:15;38.30;33.70
36372;DHT22;22398;51.346;12.372;2023-07-09T17:38:21;37.70;33.60
36372;DHT22;22398;51.346;12.372;2023-07-09T17:43:25;37.30;34.20
36372;DHT22;22398;51.346;12.372;2023-07-09T17:48:29;36.80;33.80
36372;DHT22;22398;51.346;12.372;2023-07-09T17:53:35;36.30;34.20
36372;DHT22;22398;51.346;12.372;2023-07-09T17:58:39;35.80;34.50
36372;DHT22;22398;51.346;12.372;2023-07-09T18:03:43;35.30;34.80
36372;DHT22;22398;51.346;12.372;2023-07-09T18:08:48;34.90;35.00
36372;DHT22;22398;51.346;12.372;2023-07-09T18:13:51;34.50;35.20
36372;DHT22;22398;51.346;12.372;2023-07-09T18:18:57;34.00;35.20
36372;DHT22;22398;51.346;12.372;2023-07-09T18:24:06;33.80;35.70
36372;DHT22;22398;51.346;12.372;2023-07-09T18:29:12;33.30;35.60
36372;DHT22;22398;51.346;12.372;2023-07-09T18:34:24;33.20;36.30
36372;DHT22;22398;51.346;12.372;2023-07-09T18:39:36;32.70;36.50
36372;DHT22;22398;51.346;12.372;2023-07-09T18:44:45;32.50;37.20
36372;DHT22;22398;51.346;12.372;2023-07-09T18:49:48;32.00;37.50
36372;DHT22;22398;51.346;12.372;2023-07-09T18:54:53;31.80;38.20
36372;DHT22;22398;51.346;12.372;2023-07-09T18:59:56;31.50;38.40
36372;DHT22;22398;51.346;12.372;2023-07-09T19:05:00;31.30;39.10
36372;DHT22;22398;51.346;12.372;2023-07-09T19:10:05;31.00;39.30
36372;DHT22;22398;51.346;12.372;2023-07-09T19:15:08;30.80;39.90
36372;DHT22;22398;51.346;12.372;2023-07-09T19:20:19;30.60;40.20
36372;DHT22;22398;51.346;12.372;2023-07-09T19:25:26;30.40;40.50
36372;DHT22;22398;51.346;12.372;2023-07-09T19:30:29;30.20;41.00
36372;DHT22;22398;51.346;12.372;2023-07-09T19:35:32;30.00;41.30
36372;DHT22;22398;51.346;12.372;2023-07-09T19:40:38;29.70;41.10
36372;DHT22;22398;51.346;12.372;2023-07-09T19:45:44;29.70;41.90
36372;DHT22;22398;51.346;12.372;2023-07-09T19:50:49;29.40;41.90
36372;DHT22;22398;51.346;12.372;2023-07-09T19:55:55;29.40;42.60
36372;DHT22;22398;51.346;12.372;2023-07-09T20:00:58;29.10;42.50
36372;DHT22;22398;51.346;12.372;2023-07-09T20:06:02;29.00;43.20
36372;DHT22;22398;51.346;12.372;2023-07-09T20:11:10;28.90;43.30
36372;DHT22;22398;51.346;12.372;2023-07-09T20:16:19;28.70;43.90
36372;DHT22;22398;51.346;12.372;2023-07-09T20:21:25;28.60;44.00
36372;DHT22;22398;51.346;12.372;2023-07-09T20:26:30;28.50;44.70
36372;DHT22;22398;51.346;12.372;2023-07-09T20:31:34;28.40;44.60
36372;DHT22;22398;51.346;12.372;2023-07-09T20:36:37;28.30;45.50
36372;DHT22;22398;51.346;12.372;2023-07-09T20:41:42;28.20;45.50
36372;DHT22;22398;51.346;12.372;2023-07-09T20:46:46;28.00;46.20
36372;DHT22;22398;51.346;12.372;2023-07-09T20:51:50;27.90;46.30
36372;DHT22;22398;51.346;12.372;2023-07-09T20:56:56;27.70;47.10
36372;DHT22;22398;51.346;12.372;2023-07-09T21:02:00;27.50;47.40
36372;DHT22;22398;51.346;12.372;2023-07-09T21:07:07;27.40;47.50
36372;DHT22;22398;51.346;12.372;2023-07-09T21:12:14;27.30;47.50
36372;DHT22;22398;51.346;12.372;2023-07-09T21:17:19;27.20;47.60
36372;DHT22;22398;51.346;12.372;2023-07-09T21:22:25;27.00;47.80
36372;DHT22;22398;51.346;12.372;2023-07-09T21:27:29;27.00;48.00
36372;DHT22;22398;51.346;12.372;2023-07-09T21:32:33;26.90;48.10
36372;DHT22;22398;51.346;12.372;2023-07-09T21:37:36;26.80;48.20
36372;DHT22;22398;51.346;12.372;2023-07-09T21:42:41;26.60;48.30
36372;DHT22;22398;51.346;12.372;2023-07-09T21:47:44;26.60;48.60
36372;DHT22;22398;51.346;12.372;2023-07-09T21:52:48;26.50;48.60
36372;DHT22;22398;51.346;12.372;2023-07-09T21:57:53;26.40;48.80
36372;DHT22;22398;51.346;12.372;2023-07-09T22:02:57;26.30;48.90
36372;DHT22;22398;51.346;12.372;2023-07-09T22:08:00;26.20;49.10
36372;DHT22;22398;51.346;12.372;2023-07-09T22:13:05;26.10;49.20
36372;DHT22;22398;51.346;12.372;2023-07-09T22:18:12;26.00;49.20
36372;DHT22;22398;51.346;12.372;2023-07-09T22:23:17;26.10;49.40
36372;DHT22;22398;51.346;12.372;2023-07-09T22:28:22;26.00;49.40
36372;DHT22;22398;51.346;12.372;2023-07-09T22:33:26;25.90;49.50
36372;DHT22;22398;51.346;12.372;2023-07-09T22:38:30;25.80;49.60
36372;DHT22;22398;51.346;12.372;2023-07-09T22:43:34;25.70;49.90
36372;DHT22;22398;51.346;12.372;2023-07-09T22:48:37;25.60;50.10
36372;DHT22;22398;51.346;12.372;2023-07-09T22:53:45;25.50;50.40
36372;DHT22;22398;51.346;12.372;2023-07-09T22:58:50;25.40;50.70
36372;DHT22;22398;51.346;12.372;2023-07-09T23:03:53;25.30;51.10
36372;DHT22;22398;51.346;12.372;2023-07-09T23:08:57;25.20;51.40
36372;DHT22;22398;51.346;12.372;2023-07-09T23:14:02;25.10;51.60
36372;DHT22;22398;51.346;12.372;2023-07-09T23:19:11;25.10;51.90
36372;DHT22;22398;51.346;12.372;2023-07-09T23:24:17;25.10;52.00
36372;DHT22;22398;51.346;12.372;2023-07-09T23:29:22;25.20;52.10
36372;DHT22;22398;51.346;12.372;2023-07-09T23:34:26;25.20;52.10
36372;DHT22;22398;51.346;12.372;2023-07-09T23:39:29;25.30;52.30
36372;DHT22;22398;51.346;12.372;2023-07-09T23:44:34;25.20;53.00
36372;DHT22;22398;51.346;12.372;2023-07-09T23:49:37;25.40;52.30
36372;DHT22;22398;51.346;12.372;2023-07-09T23:54:40;25.60;51.80
36372;DHT22;22398;51.346;12.372;2023-07-09T23:59:45;25.70;51.60
